Sonnenkopf, Austria
Current Conditions -  °F | °C
As of 9:20 AM on Sunday 26 Oct 2014 (Local Time) from LSZR Reporting Station
Overcast Overcast  
Wind Chill: 46°   Ceiling: 7000
Heat Index: 48°   Visibility: 6mi
Dew Point: 48°   Wind: 5mph
Humidity: 100%   Direction: 90°E
Pressure: 30.3"   Gusts: NA
Location:  47.13°N, 10.06°E
Report Text: LSZR 260720Z AUTO 09004KT 9999 OVC070 09/09 Q1026
Loading
Personal Weather Stations






























Interactive Weather Map
Tropical Storm Tracking
New forecast layout! Learn more

10-Day Weather Forecast

Advertisements
Track Severe Weather on mobile